Terminal Aerodrome Forecast
Issued by NWS

Current Version | Previous Version | Text Only | Print | Product List | Glossary Off
Versions: 1 2 3 4 5 6 7 8 9 10 11 12 13 14 15 16 17 18 19 20

000
FTUS41 KILN 212300
TAFLUK
TAF
KLUK 212320Z 2200/2224 29006KT P6SM SCT040
     FM220500 VRB03KT P6SM SKC
     FM221500 27008KT P6SM SCT050
     FM222200 31008KT P6SM SCT050 SCT250=

USA.gov is the U.S. government's official web portal to all federal, state and local government web resources and services.